Time;durP1;ratioP1;P1;durP2;ratioP2;P2;SDS_P1;SDS_P2;PMS_P1;PMS_P2;Temp;Humidity;BMP_temperature;BMP_pressure;BME280_temperature;BME280_humidity;BME280_pressure;Samples;Min_cycle;Max_cycle;Signal;HPM_P1;HPM_P2
2023/12/23 00:01:05;;;;;;;0.00;0.00;;;;;;;4.69;66.11;98093.47;4431997;32;32948;-80
2023/12/23 00:03:33;;;;;;;0.00;0.00;;;;;;;4.87;65.61;98093.44;4443775;32;33393;-80
2023/12/23 00:06:01;;;;;;;0.00;0.00;;;;;;;4.98;65.10;98094.69;4431390;32;33266;-80
2023/12/23 00:08:29;;;;;;;0.00;0.00;;;;;;;4.94;65.30;98108.84;4429767;32;33926;-81
2023/12/23 00:10:58;;;;;;;0.00;0.00;;;;;;;4.77;65.21;98107.03;4431475;32;34131;-81
2023/12/23 00:13:25;;;;;;;0.00;0.00;;;;;;;4.94;65.50;98108.84;4429769;32;33742;-81
2023/12/23 00:15:53;;;;;;;0.00;0.00;;;;;;;4.75;66.05;98103.66;4443657;32;32979;-81
2023/12/23 00:18:21;;;;;;;0.00;0.00;;;;;;;5.03;65.05;98104.03;4430606;32;32853;-81
2023/12/23 00:20:49;;;;;;;0.00;0.00;;;;;;;4.90;65.29;98092.47;4443399;32;34650;-81
2023/12/23 00:23:17;;;;;;;0.00;0.00;;;;;;;4.81;65.62;98078.06;4444290;32;33382;-80
2023/12/23 00:25:45;;;;;;;0.00;0.00;;;;;;;4.92;65.48;98066.22;4442467;32;33476;-81
2023/12/23 00:28:12;;;;;;;0.00;0.00;;;;;;;4.91;65.66;98067.16;4429366;32;33774;-81
2023/12/23 00:30:40;;;;;;;0.00;0.00;;;;;;;4.99;65.18;98091.19;4428393;32;33223;-81
2023/12/23 00:33:08;;;;;;;0.00;0.00;;;;;;;4.98;65.06;98084.22;4444093;32;33458;-81
2023/12/23 00:35:36;;;;;;;0.00;0.00;;;;;;;5.14;64.80;98061.66;4430486;32;33694;-81
2023/12/23 00:38:04;;;;;;;0.00;0.00;;;;;;;5.00;65.64;98053.62;4432777;32;34323;-81
2023/12/23 00:40:32;;;;;;;0.00;0.00;;;;;;;5.20;64.05;98057.87;4419291;32;32679;-81
2023/12/23 00:43:00;;;;;;;0.00;0.00;;;;;;;5.00;64.68;98032.72;4448933;32;34060;-81
2023/12/23 00:45:27;;;;;;;0.00;0.00;;;;;;;4.87;65.03;98030.69;4433546;32;32072;-81
2023/12/23 00:47:55;;;;;;;0.00;0.00;;;;;;;5.03;65.11;98035.16;4422424;32;34628;-81
2023/12/23 00:50:23;;;;;;;0.00;0.00;;;;;;;5.21;64.29;98052.56;4462057;32;33652;-82
2023/12/23 00:52:51;;;;;;;0.00;0.00;;;;;;;5.18;64.21;98063.19;4446279;32;33760;-81
2023/12/23 00:55:19;;;;;;;0.00;0.00;;;;;;;5.16;63.76;98046.72;4448531;32;33912;-82
2023/12/23 00:57:47;;;;;;;0.00;0.00;;;;;;;5.36;63.75;98050.94;4433159;32;34104;-81
2023/12/23 01:00:15;;;;;;;0.00;0.00;;;;;;;5.32;63.72;98052.03;4447813;32;32457;-81
2023/12/23 01:02:42;;;;;;;0.00;0.00;;;;;;;4.98;64.75;98052.84;4463459;32;33364;-82
2023/12/23 01:05:11;;;;;;;0.00;0.00;;;;;;;5.19;64.27;98051.81;4445971;32;32989;-82
2023/12/23 01:07:38;;;;;;;0.00;0.00;;;;;;;5.13;64.29;98046.88;4460370;32;34566;-84
2023/12/23 01:10:07;;;;;;;0.00;0.00;;;;;;;5.08;64.86;98069.78;4449022;32;34118;-84
2023/12/23 01:12:34;;;;;;;0.00;0.00;;;;;;;5.35;63.89;98098.97;4432177;32;33019;-84
2023/12/23 01:15:02;;;;;;;0.00;0.00;;;;;;;4.91;65.38;98111.63;4461340;32;33444;-84
2023/12/23 01:17:30;;;;;;;0.00;0.00;;;;;;;5.07;64.96;98120.41;4448110;32;32686;-84
2023/12/23 01:19:58;;;;;;;0.00;0.00;;;;;;;4.78;65.72;98114.81;4451325;32;34818;-83
2023/12/23 01:22:25;;;;;;;0.00;0.00;;;;;;;4.91;65.30;98122.06;4446713;32;32787;-82
2023/12/23 01:24:54;;;;;;;0.00;0.00;;;;;;;5.05;64.54;98114.41;4462599;32;32905;-82
2023/12/23 01:27:22;;;;;;;0.00;0.00;;;;;;;4.90;64.99;98120.38;4461425;32;34381;-82
2023/12/23 01:29:50;;;;;;;0.00;0.00;;;;;;;5.05;65.25;98123.12;4461826;32;34452;-81
2023/12/23 01:32:18;;;;;;;0.00;0.00;;;;;;;4.92;65.21;98132.47;4447194;32;32786;-81
2023/12/23 01:34:45;;;;;;;0.00;0.00;;;;;;;5.00;65.40;98134.72;4438381;32;32345;-82
2023/12/23 01:37:13;;;;;;;0.00;0.00;;;;;;;5.12;64.65;98131.50;4459923;32;33857;-82
2023/12/23 01:39:41;;;;;;;0.00;0.00;;;;;;;5.05;64.62;98127.50;4458745;32;34751;-81
2023/12/23 01:42:08;;;;;;;0.00;0.00;;;;;;;5.09;65.07;98131.66;4447148;32;32513;-81
2023/12/23 01:44:36;;;;;;;0.00;0.00;;;;;;;4.91;65.19;98140.38;4458615;32;33110;-82
2023/12/23 01:47:04;;;;;;;0.00;0.00;;;;;;;5.21;64.52;98144.13;4461268;32;33963;-82
2023/12/23 01:49:32;;;;;;;0.00;0.00;;;;;;;4.54;66.79;98155.16;4460902;32;33971;-83
2023/12/23 01:52:01;;;;;;;0.00;0.00;;;;;;;5.00;65.26;98124.25;4446770;32;33718;-82
2023/12/23 01:54:29;;;;;;;0.00;0.00;;;;;;;5.01;64.88;98118.09;4448549;32;32884;-82
2023/12/23 01:56:58;;;;;;;0.00;0.00;;;;;;;5.13;64.65;98112.28;4448527;32;34276;-82
2023/12/23 01:59:26;;;;;;;0.00;0.00;;;;;;;4.85;65.40;98103.16;4452385;32;34345;-81
2023/12/23 02:01:55;;;;;;;0.00;0.00;;;;;;;4.81;65.80;98106.81;4462162;32;33343;-81
2023/12/23 02:04:23;;;;;;;0.00;0.00;;;;;;;4.91;65.40;98120.31;4446474;32;33264;-81
2023/12/23 02:06:51;;;;;;;0.00;0.00;;;;;;;4.93;65.48;98122.84;4435574;32;33140;-83
2023/12/23 02:09:19;;;;;;;0.00;0.00;;;;;;;5.20;64.88;98137.22;4435310;32;33268;-83
2023/12/23 02:11:53;;;;;;;1.48;1.37;;;;;;;5.00;64.99;98140.78;4444758;32;33331;-83
2023/12/23 02:14:31;;;;;;;0.00;0.00;;;;;;;4.90;65.81;98154.38;4448958;32;32698;-83
2023/12/23 02:16:58;;;;;;;0.00;0.00;;;;;;;4.49;67.62;98160.59;4451054;32;33557;-83
2023/12/23 02:19:26;;;;;;;0.00;0.00;;;;;;;4.63;66.51;98167.81;4446945;32;34402;-83
2023/12/23 02:21:55;;;;;;;0.00;0.00;;;;;;;4.72;66.31;98203.16;4461592;32;32968;-83
2023/12/23 02:24:23;;;;;;;0.00;0.00;;;;;;;4.72;66.71;98204.00;4455218;32;33550;-83
2023/12/23 02:26:55;;;;;;;0.00;0.00;;;;;;;4.59;67.09;98208.06;4462975;32;33857;-83
2023/12/23 02:29:23;;;;;;;0.00;0.00;;;;;;;4.73;66.37;98197.00;4455701;32;33371;-80
2023/12/23 02:31:51;;;;;;;0.00;0.00;;;;;;;4.80;65.85;98186.19;4436611;32;32526;-81
2023/12/23 02:34:19;;;;;;;0.00;0.00;;;;;;;4.62;66.95;98194.87;4448219;32;33986;-81
2023/12/23 02:36:48;;;;;;;0.00;0.00;;;;;;;4.66;67.00;98213.91;4459990;32;34315;-81
2023/12/23 02:39:16;;;;;;;0.00;0.00;;;;;;;4.41;67.99;98208.88;4459849;32;32446;-81
2023/12/23 02:41:44;;;;;;;0.05;0.05;;;;;;;4.57;67.37;98209.91;4457748;32;33467;-81
2023/12/23 02:44:13;;;;;;;0.00;0.00;;;;;;;4.39;67.84;98201.13;4451077;32;33738;-81
2023/12/23 02:46:41;;;;;;;0.00;0.00;;;;;;;4.33;68.60;98190.94;4435463;32;33995;-81
2023/12/23 02:49:09;;;;;;;0.00;0.00;;;;;;;4.12;68.97;98183.12;4448658;32;33582;-81
2023/12/23 02:51:37;;;;;;;0.00;0.00;;;;;;;4.44;67.91;98203.53;4446871;32;33947;-81
2023/12/23 02:54:04;;;;;;;0.00;0.00;;;;;;;4.58;67.60;98211.59;4446583;32;32339;-80
2023/12/23 02:56:32;;;;;;;0.00;0.00;;;;;;;4.61;67.64;98227.16;4445987;32;32705;-80
2023/12/23 02:58:59;;;;;;;0.00;0.00;;;;;;;4.40;68.05;98218.50;4433692;32;33263;-80
2023/12/23 03:01:27;;;;;;;0.00;0.00;;;;;;;4.57;67.83;98217.75;4450708;32;33346;-80
2023/12/23 03:03:55;;;;;;;0.00;0.00;;;;;;;4.65;67.63;98220.00;4445726;32;33729;-80
2023/12/23 03:06:23;;;;;;;0.00;0.00;;;;;;;4.55;67.62;98227.41;4449115;32;33867;-80
2023/12/23 03:08:51;;;;;;;0.00;0.00;;;;;;;4.76;67.60;98216.00;4446526;32;35019;-80
2023/12/23 03:11:19;;;;;;;0.00;0.00;;;;;;;4.42;68.46;98224.53;4447579;32;33015;-81
2023/12/23 03:13:46;;;;;;;0.00;0.00;;;;;;;4.53;68.53;98243.19;4458954;32;32987;-80
2023/12/23 03:16:18;;;;;;;0.00;0.00;;;;;;;4.71;67.71;98235.44;4433789;32;33028;-80
2023/12/23 03:18:46;;;;;;;0.00;0.00;;;;;;;4.62;67.64;98224.47;4448464;32;34251;-81
2023/12/23 03:21:15;;;;;;;0.00;0.00;;;;;;;4.55;67.81;98228.25;4459239;32;33138;-81
2023/12/23 03:23:45;;;;;;;0.00;0.00;;;;;;;4.72;67.68;98224.91;4445959;32;32581;-81
2023/12/23 03:26:13;;;;;;;0.00;0.00;;;;;;;4.73;67.40;98234.44;4447018;32;34303;-81
2023/12/23 03:28:41;;;;;;;0.00;0.00;;;;;;;4.40;68.11;98265.53;4441346;32;32301;-80
2023/12/23 03:31:09;;;;;;;0.00;0.00;;;;;;;4.36;68.45;98277.87;4460323;32;33463;-81
2023/12/23 03:33:37;;;;;;;0.00;0.00;;;;;;;4.53;67.94;98281.53;4433390;32;33147;-81
2023/12/23 03:36:06;;;;;;;0.00;0.00;;;;;;;4.44;68.49;98302.84;4458924;32;33805;-82
2023/12/23 03:38:35;;;;;;;0.00;0.00;;;;;;;4.36;68.14;98306.63;4460527;32;33996;-82
2023/12/23 03:41:03;;;;;;;0.00;0.00;;;;;;;4.33;69.21;98308.53;4446228;32;33843;-82
2023/12/23 03:43:31;;;;;;;0.00;0.00;;;;;;;4.19;68.69;98309.13;4444041;32;32588;-81
2023/12/23 03:45:58;;;;;;;0.00;0.00;;;;;;;4.43;68.84;98294.16;4458130;32;33728;-81
2023/12/23 03:48:26;;;;;;;0.00;0.00;;;;;;;4.29;68.47;98276.44;4435567;32;33510;-81
2023/12/23 03:50:54;;;;;;;0.00;0.00;;;;;;;4.16;69.07;98271.81;4448011;32;33828;-81
2023/12/23 03:53:22;;;;;;;0.00;0.00;;;;;;;4.29;69.24;98260.78;4459989;32;32717;-81
2023/12/23 03:55:49;;;;;;;0.00;0.00;;;;;;;4.58;68.53;98253.44;4462490;32;33129;-81
2023/12/23 03:58:17;;;;;;;0.00;0.00;;;;;;;4.51;68.73;98260.72;4445967;32;32354;-82
2023/12/23 04:00:45;;;;;;;0.00;0.00;;;;;;;4.37;68.69;98266.53;4445965;32;33517;-82
2023/12/23 04:03:13;;;;;;;0.00;0.00;;;;;;;4.51;68.86;98260.72;4434442;32;31804;-82
2023/12/23 04:05:41;;;;;;;0.00;0.00;;;;;;;4.79;67.66;98257.69;4445128;32;33093;-82
2023/12/23 04:08:09;;;;;;;0.00;0.00;;;;;;;4.64;67.68;98266.22;4461884;32;33611;-81
2023/12/23 04:10:37;;;;;;;0.00;0.00;;;;;;;4.19;69.03;98256.88;4460531;32;33866;-81
2023/12/23 04:13:05;;;;;;;0.00;0.00;;;;;;;4.51;67.88;98246.75;4463236;32;33820;-81
2023/12/23 04:15:32;;;;;;;0.00;0.00;;;;;;;4.68;67.88;98249.50;4462981;32;34768;-81
2023/12/23 04:18:00;;;;;;;0.00;0.00;;;;;;;4.50;68.65;98235.47;4461000;32;33956;-81
2023/12/23 04:20:28;;;;;;;0.00;0.00;;;;;;;4.50;68.65;98234.63;4434022;32;32661;-81
2023/12/23 04:22:56;;;;;;;0.00;0.00;;;;;;;4.87;67.34;98239.91;4449106;32;32095;-81
2023/12/23 04:25:24;;;;;;;0.00;0.00;;;;;;;4.74;67.56;98249.22;4448883;32;33456;-81
2023/12/23 04:27:53;;;;;;;0.00;0.00;;;;;;;4.59;67.84;98255.13;4459577;32;33004;-82
2023/12/23 04:30:21;;;;;;;0.00;0.00;;;;;;;4.66;67.31;98253.94;4451539;32;33695;-82
2023/12/23 04:32:49;;;;;;;0.00;0.00;;;;;;;4.70;67.76;98259.88;4462339;32;33796;-82
2023/12/23 04:35:18;;;;;;;0.00;0.00;;;;;;;4.69;67.72;98250.34;4446748;32;33182;-82
2023/12/23 04:37:46;;;;;;;0.00;0.00;;;;;;;4.26;68.86;98247.00;4447112;32;34431;-81
2023/12/23 04:40:15;;;;;;;0.00;0.00;;;;;;;4.24;69.79;98249.69;4460324;32;33944;-82
2023/12/23 04:42:43;;;;;;;0.00;0.00;;;;;;;4.11;70.41;98248.50;4462603;32;32591;-81
2023/12/23 04:45:11;;;;;;;0.00;0.00;;;;;;;3.98;70.68;98237.72;4448891;32;33797;-82
2023/12/23 04:47:39;;;;;;;0.00;0.00;;;;;;;3.39;72.17;98258.44;4461646;32;33587;-82
2023/12/23 04:50:07;;;;;;;0.00;0.00;;;;;;;3.57;71.52;98242.03;4447888;32;33379;-82
2023/12/23 04:52:35;;;;;;;0.00;0.00;;;;;;;4.21;69.58;98255.03;4460382;32;33369;-82
2023/12/23 04:55:05;;;;;;;0.00;0.00;;;;;;;4.15;69.07;98265.75;4447779;32;34540;-82
2023/12/23 04:57:34;;;;;;;0.00;0.00;;;;;;;3.91;70.10;98277.22;4448712;32;33872;-83
2023/12/23 05:00:05;;;;;;;0.00;0.00;;;;;;;3.80;71.01;98288.94;4458847;32;34143;-83
2023/12/23 05:02:34;;;;;;;0.00;0.00;;;;;;;4.31;69.29;98287.69;4450101;32;34623;-85
2023/12/23 05:05:01;;;;;;;0.00;0.00;;;;;;;4.30;69.60;98301.66;4446618;32;33084;-82
2023/12/23 05:07:30;;;;;;;0.00;0.00;;;;;;;3.84;71.40;98305.31;4446090;32;33419;-84
2023/12/23 05:09:58;;;;;;;0.00;0.00;;;;;;;4.21;69.64;98295.97;4448956;32;33567;-82
2023/12/23 05:12:26;;;;;;;0.00;0.00;;;;;;;3.80;70.56;98302.00;4447996;32;33058;-83
2023/12/23 05:14:53;;;;;;;0.00;0.00;;;;;;;3.83;71.04;98312.31;4435781;32;33695;-83
2023/12/23 05:17:21;;;;;;;0.00;0.00;;;;;;;4.18;69.71;98338.78;4434505;32;33075;-83
2023/12/23 05:19:49;;;;;;;0.00;0.00;;;;;;;4.01;70.47;98351.66;4435494;32;34099;-83
2023/12/23 05:22:17;;;;;;;0.00;0.00;;;;;;;4.18;69.31;98364.00;4461594;32;33304;-84
2023/12/23 05:24:48;;;;;;;0.00;0.00;;;;;;;3.92;70.87;98370.31;4446729;32;33768;-84
2023/12/23 05:27:16;;;;;;;0.00;0.00;;;;;;;3.66;72.10;98381.78;4460945;32;33102;-83
2023/12/23 05:29:45;;;;;;;0.00;0.00;;;;;;;4.05;70.27;98384.56;4448934;32;33482;-82
2023/12/23 05:32:13;;;;;;;0.00;0.00;;;;;;;3.97;70.77;98400.53;4461858;32;33095;-83
2023/12/23 05:34:40;;;;;;;0.00;0.00;;;;;;;3.96;70.53;98395.38;4447559;32;32871;-83
2023/12/23 05:37:09;;;;;;;0.00;0.00;;;;;;;3.97;70.93;98397.09;4436499;32;33290;-83
2023/12/23 05:39:38;;;;;;;0.00;0.00;;;;;;;3.81;71.62;98402.06;4447918;32;34317;-83
2023/12/23 05:42:05;;;;;;;0.00;0.00;;;;;;;3.92;71.15;98410.31;4448948;32;33126;-83
2023/12/23 05:44:33;;;;;;;0.00;0.00;;;;;;;3.69;71.73;98418.19;4449905;32;33955;-84
2023/12/23 05:47:01;;;;;;;0.10;0.10;;;;;;;3.50;72.87;98425.84;4437027;32;33958;-84
2023/12/23 05:49:29;;;;;;;0.00;0.00;;;;;;;3.75;71.86;98444.94;4449543;32;34466;-83
2023/12/23 05:51:57;;;;;;;0.00;0.00;;;;;;;3.50;72.69;98449.34;4450688;32;33273;-84
2023/12/23 05:54:24;;;;;;;0.00;0.00;;;;;;;3.56;72.68;98446.50;4452378;32;32627;-84
2023/12/23 05:56:52;;;;;;;0.00;0.00;;;;;;;3.99;70.91;98461.41;4463574;32;34815;-83
2023/12/23 05:59:20;;;;;;;0.00;0.00;;;;;;;3.50;71.83;98481.50;4450414;32;34624;-83
2023/12/23 06:01:48;;;;;;;0.00;0.00;;;;;;;3.45;72.48;98469.53;4458956;32;33192;-84
2023/12/23 06:04:17;;;;;;;0.00;0.00;;;;;;;4.02;70.12;98469.13;4447182;32;34057;-84
2023/12/23 06:06:45;;;;;;;0.00;0.00;;;;;;;3.89;70.79;98464.41;4465564;32;33714;-84
2023/12/23 06:09:13;;;;;;;0.00;0.00;;;;;;;3.79;71.32;98490.88;4463694;32;33405;-84
2023/12/23 06:11:41;;;;;;;0.00;0.00;;;;;;;3.01;73.57;98509.31;4436230;32;32201;-84
2023/12/23 06:14:09;;;;;;;0.00;0.00;;;;;;;3.71;71.48;98494.69;4463478;32;34165;-84
2023/12/23 06:16:39;;;;;;;0.00;0.00;;;;;;;3.98;70.51;98500.63;4448193;32;33908;-84
2023/12/23 06:19:07;;;;;;;0.00;0.00;;;;;;;3.60;71.72;98497.69;4453737;32;34154;-84
2023/12/23 06:21:35;;;;;;;0.03;0.03;;;;;;;4.08;70.39;98488.91;4458183;32;33975;-83
2023/12/23 06:24:03;;;;;;;0.00;0.00;;;;;;;3.81;70.72;98507.34;4439457;32;32889;-83
2023/12/23 06:26:31;;;;;;;0.00;0.00;;;;;;;3.98;70.51;98518.91;4450220;32;34096;-84
2023/12/23 06:28:58;;;;;;;0.00;0.00;;;;;;;4.02;70.21;98510.91;4461466;32;33412;-83
2023/12/23 06:31:26;;;;;;;0.00;0.00;;;;;;;4.21;68.77;98494.53;4435784;32;32944;-82
2023/12/23 06:33:54;;;;;;;0.00;0.00;;;;;;;4.22;69.19;98523.19;4473965;31;34409;-83
2023/12/23 06:36:21;;;;;;;0.03;0.03;;;;;;;4.34;69.01;98530.59;4458782;32;33406;-82
2023/12/23 06:38:49;;;;;;;0.00;0.00;;;;;;;4.01;70.23;98506.59;4448286;32;34035;-82
2023/12/23 06:41:17;;;;;;;0.00;0.00;;;;;;;4.09;70.00;98506.31;4460813;32;33455;-83
2023/12/23 06:43:45;;;;;;;0.08;0.08;;;;;;;4.04;69.68;98514.34;4438486;32;32849;-83
2023/12/23 06:46:23;;;;;;;0.00;0.00;;;;;;;3.99;70.34;98524.09;4455042;32;33573;-83
2023/12/23 06:48:51;;;;;;;0.00;0.00;;;;;;;4.11;70.53;98536.69;4449117;32;33865;-83
2023/12/23 06:51:19;;;;;;;0.00;0.00;;;;;;;4.09;70.82;98538.50;4448165;32;31026;-84
2023/12/23 06:53:49;;;;;;;0.00;0.00;;;;;;;3.84;71.80;98540.31;4447832;32;33773;-85
2023/12/23 06:56:16;;;;;;;0.17;0.15;;;;;;;4.18;70.69;98518.16;4462201;32;33890;-85
2023/12/23 06:58:45;;;;;;;0.45;0.45;;;;;;;4.32;69.91;98549.81;4449248;32;34396;-83
2023/12/23 07:01:13;;;;;;;0.00;0.00;;;;;;;3.82;72.03;98545.59;4448854;32;32297;-83
2023/12/23 07:03:42;;;;;;;0.00;0.00;;;;;;;3.89;71.69;98545.37;4451878;32;33913;-83
2023/12/23 07:06:12;;;;;;;0.15;0.15;;;;;;;4.08;71.02;98522.87;4462558;32;34118;-83
2023/12/23 07:08:40;;;;;;;1.20;0.80;;;;;;;4.18;70.77;98521.66;4449490;32;32593;-83
2023/12/23 07:11:09;;;;;;;0.00;0.00;;;;;;;3.81;71.66;98517.78;4461428;32;32628;-82
2023/12/23 07:13:37;;;;;;;0.00;0.00;;;;;;;3.89;70.90;98516.63;4454559;32;33368;-82
2023/12/23 07:16:07;;;;;;;0.00;0.00;;;;;;;4.20;69.99;98527.66;4446878;32;35137;-82
2023/12/23 07:18:36;;;;;;;0.17;0.05;;;;;;;4.50;69.14;98543.03;4440458;32;33448;-82
2023/12/23 07:21:10;;;;;;;0.00;0.00;;;;;;;3.88;70.89;98561.94;4436419;32;31580;-82
2023/12/23 07:23:41;;;;;;;0.00;0.00;;;;;;;4.19;69.31;98559.91;4435962;32;33153;-82
2023/12/23 07:26:20;;;;;;;0.05;0.05;;;;;;;4.30;69.15;98578.66;4443407;32;34086;-82
2023/12/23 07:29:27;;;;;;;0.00;0.00;;;;;;;4.20;69.79;98606.03;4452540;32;34146;-82
2023/12/23 07:32:12;;;;;;;0.05;0.05;;;;;;;4.16;69.30;98612.28;4437267;32;31848;-82
2023/12/23 07:35:05;;;;;;;0.00;0.00;;;;;;;4.25;68.68;98598.03;4442426;32;31583;-82
2023/12/23 07:38:33;;;;;;;0.00;0.00;;;;;;;4.22;69.46;98624.25;4445433;32;33725;-82
2023/12/23 07:41:13;;;;;;;0.20;0.20;;;;;;;4.08;70.14;98630.84;4447258;32;32357;-83
2023/12/23 07:43:56;;;;;;;0.00;0.00;;;;;;;3.67;71.36;98627.09;4438268;32;32317;-84
2023/12/23 07:46:48;;;;;;;0.00;0.00;;;;;;;3.82;70.71;98623.09;4440074;32;32527;-82
2023/12/23 07:49:35;;;;;;;0.00;0.00;;;;;;;4.19;69.84;98627.00;4437945;32;33670;-82
2023/12/23 07:52:07;;;;;;;0.03;0.03;;;;;;;3.83;70.80;98636.06;4437627;32;32551;-83
2023/12/23 07:54:48;;;;;;;0.15;0.15;;;;;;;4.20;69.99;98636.53;4424794;32;32461;-83
2023/12/23 07:57:15;;;;;;;1.25;1.15;;;;;;;4.22;69.30;98647.75;4444806;32;34070;-83
2023/12/23 07:59:44;;;;;;;0.00;0.00;;;;;;;4.05;70.09;98649.25;4451278;32;33348;-82
2023/12/23 08:02:12;;;;;;;0.00;0.00;;;;;;;4.18;69.13;98670.56;4459880;32;33221;-83
2023/12/23 08:04:41;;;;;;;0.00;0.00;;;;;;;4.09;69.89;98682.19;4435968;32;34037;-82
2023/12/23 08:07:09;;;;;;;0.00;0.00;;;;;;;4.54;68.44;98688.41;4459109;32;33483;-82
2023/12/23 08:09:36;;;;;;;0.00;0.00;;;;;;;4.62;68.15;98695.06;4442582;32;33425;-82
2023/12/23 08:12:11;;;;;;;0.00;0.00;;;;;;;4.25;69.33;98703.38;4447990;32;34138;-82
2023/12/23 08:14:39;;;;;;;0.00;0.00;;;;;;;4.84;66.60;98700.34;4460867;32;32294;-82
2023/12/23 08:17:08;;;;;;;0.00;0.00;;;;;;;4.25;69.70;98726.06;4445788;32;32768;-82
2023/12/23 08:19:36;;;;;;;0.00;0.00;;;;;;;4.73;68.34;98728.66;4460427;32;34007;-82
2023/12/23 08:22:05;;;;;;;0.00;0.00;;;;;;;4.74;68.00;98727.72;4461244;32;33751;-82
2023/12/23 08:24:35;;;;;;;0.00;0.00;;;;;;;4.80;67.68;98730.16;4448544;32;33322;-82
2023/12/23 08:27:03;;;;;;;0.00;0.00;;;;;;;4.82;67.46;98733.53;4446447;32;33452;-82
2023/12/23 08:29:33;;;;;;;0.00;0.00;;;;;;;4.96;66.42;98734.78;4433398;32;33826;-82
2023/12/23 08:32:02;;;;;;;0.00;0.00;;;;;;;4.95;66.95;98733.09;4446765;32;33816;-82
2023/12/23 08:34:30;;;;;;;0.00;0.00;;;;;;;4.90;66.88;98748.09;4463053;32;34497;-82
2023/12/23 08:36:58;;;;;;;0.00;0.00;;;;;;;5.04;65.99;98743.22;4449669;32;34153;-82
2023/12/23 08:39:26;;;;;;;0.00;0.00;;;;;;;4.92;66.09;98751.50;4462834;32;34018;-82
2023/12/23 08:41:53;;;;;;;0.45;0.45;;;;;;;4.99;65.73;98761.69;4460637;32;34157;-83
2023/12/23 08:44:21;;;;;;;0.08;0.08;;;;;;;4.81;66.71;98767.59;4447877;32;33988;-82
2023/12/23 08:46:49;;;;;;;1.50;1.40;;;;;;;4.80;66.39;98751.06;4450082;32;33083;-82
2023/12/23 08:49:17;;;;;;;0.00;0.00;;;;;;;4.94;66.47;98763.63;4457730;32;33689;-82
2023/12/23 08:51:45;;;;;;;0.08;0.08;;;;;;;5.23;65.18;98759.06;4445799;32;33872;-83
2023/12/23 08:54:12;;;;;;;0.17;0.17;;;;;;;5.26;64.05;98770.25;4462274;32;34098;-83
2023/12/23 08:56:40;;;;;;;1.27;1.10;;;;;;;4.77;65.97;98781.69;4462390;32;33021;-82
2023/12/23 08:59:08;;;;;;;0.00;0.00;;;;;;;4.86;65.48;98787.44;4449664;32;33055;-82
2023/12/23 09:01:36;;;;;;;0.00;0.00;;;;;;;4.93;64.76;98788.06;4449765;32;32440;-82
2023/12/23 09:04:03;;;;;;;0.00;0.00;;;;;;;4.90;64.30;98797.81;4434821;32;32338;-82
2023/12/23 09:06:31;;;;;;;0.00;0.00;;;;;;;5.12;63.76;98796.06;4460350;32;34149;-83
2023/12/23 09:08:59;;;;;;;0.05;0.05;;;;;;;4.81;64.03;98789.37;4459139;32;32275;-82
2023/12/23 09:11:28;;;;;;;0.00;0.00;;;;;;;4.91;63.38;98786.44;4461612;32;32215;-82
2023/12/23 09:13:56;;;;;;;1.23;0.57;;;;;;;4.73;63.29;98801.88;4449067;32;32774;-83
2023/12/23 09:16:24;;;;;;;0.00;0.00;;;;;;;4.91;63.27;98800.34;4435497;32;32729;-83
2023/12/23 09:18:51;;;;;;;0.00;0.00;;;;;;;5.16;62.06;98800.28;4465031;32;33746;-83
2023/12/23 09:21:19;;;;;;;0.00;0.00;;;;;;;4.80;62.54;98800.75;4464681;32;33630;-83
2023/12/23 09:23:47;;;;;;;0.00;0.00;;;;;;;5.30;60.63;98792.75;4447246;32;32201;-83
2023/12/23 09:26:15;;;;;;;0.00;0.00;;;;;;;5.29;60.49;98795.44;4465987;32;33857;-83
2023/12/23 09:28:42;;;;;;;0.00;0.00;;;;;;;4.87;61.75;98796.16;4433103;32;34244;-83
2023/12/23 09:31:10;;;;;;;0.05;0.05;;;;;;;4.92;61.57;98801.22;4463477;32;33448;-83
2023/12/23 09:33:39;;;;;;;0.00;0.00;;;;;;;4.99;61.00;98800.94;4454268;32;33286;-82
2023/12/23 09:36:07;;;;;;;0.00;0.00;;;;;;;4.96;61.35;98794.97;4436908;32;32717;-82
2023/12/23 09:38:35;;;;;;;0.00;0.00;;;;;;;5.34;60.17;98786.50;4451159;32;34462;-82
2023/12/23 09:41:05;;;;;;;0.17;0.15;;;;;;;5.36;60.24;98782.09;4440798;32;32945;-82
2023/12/23 09:43:33;;;;;;;0.00;0.00;;;;;;;5.34;60.18;98772.56;4449659;32;32014;-82
2023/12/23 09:46:02;;;;;;;0.10;0.10;;;;;;;5.30;59.94;98766.59;4445360;32;33011;-82
2023/12/23 09:48:29;;;;;;;1.75;1.50;;;;;;;5.18;61.14;98767.09;4459684;32;34758;-82
2023/12/23 09:50:57;;;;;;;0.00;0.00;;;;;;;5.21;60.93;98772.19;4440529;32;34032;-81
2023/12/23 09:53:26;;;;;;;0.10;0.10;;;;;;;5.46;60.12;98779.06;4450316;32;32064;-82
2023/12/23 09:55:54;;;;;;;0.15;0.15;;;;;;;5.69;59.74;98779.03;4448183;32;32758;-82
2023/12/23 09:58:22;;;;;;;0.47;0.47;;;;;;;5.61;59.67;98775.88;4450655;32;33842;-82
2023/12/23 10:00:51;;;;;;;0.08;0.08;;;;;;;4.93;61.01;98792.44;4440781;32;33218;-83
2023/12/23 10:03:22;;;;;;;0.35;0.35;;;;;;;4.98;61.68;98796.59;4451100;32;33056;-82
2023/12/23 10:05:52;;;;;;;1.48;0.65;;;;;;;4.86;61.13;98794.44;4460731;32;33967;-82
2023/12/23 10:08:22;;;;;;;0.17;0.17;;;;;;;4.75;61.38;98799.22;4436621;32;33930;-82
2023/12/23 10:10:54;;;;;;;0.60;0.60;;;;;;;5.12;60.40;98793.47;4452332;31;32685;-82
2023/12/23 10:13:22;;;;;;;0.77;0.77;;;;;;;5.23;60.05;98807.00;4464041;32;32970;-82
2023/12/23 10:15:50;;;;;;;1.52;0.40;;;;;;;5.46;nan;98794.78;4459304;32;34337;-81
2023/12/23 10:18:18;;;;;;;0.00;0.00;;;;;;;5.27;60.07;98794.63;4449814;32;34758;-82
2023/12/23 10:20:46;;;;;;;0.00;0.00;;;;;;;5.27;59.36;98792.91;4448193;32;33918;-82
2023/12/23 10:23:14;;;;;;;0.20;0.20;;;;;;;5.01;59.50;98806.09;4463419;32;31887;-82
2023/12/23 10:25:42;;;;;;;0.00;0.00;;;;;;;4.99;60.07;98802.69;4460168;32;32385;-82
2023/12/23 10:28:11;;;;;;;0.00;0.00;;;;;;;5.45;58.86;98796.56;4452010;32;34398;-82
2023/12/23 10:30:40;;;;;;;0.30;0.30;;;;;;;5.06;59.26;98780.63;4447270;32;32551;-82
2023/12/23 10:33:08;;;;;;;0.00;0.00;;;;;;;5.38;58.61;98785.47;4450137;32;32980;-82
2023/12/23 10:35:57;;;;;;;0.10;0.10;;;;;;;5.22;59.31;98781.75;4449289;31;32175;-81
2023/12/23 10:38:26;;;;;;;0.00;0.00;;;;;;;5.25;59.19;98776.38;4461648;32;34296;-82
2023/12/23 10:41:25;;;;;;;0.00;0.00;;;;;;;5.34;58.21;98781.28;4459446;32;33459;-82
2023/12/23 10:43:53;;;;;;;0.47;0.30;;;;;;;5.36;58.53;98787.31;4431602;32;32295;-83
2023/12/23 10:46:21;;;;;;;0.00;0.00;;;;;;;5.60;58.56;98790.75;4443255;32;33477;-81
2023/12/23 10:48:51;;;;;;;0.20;0.20;;;;;;;5.74;57.43;98789.31;4462139;32;33661;-82
2023/12/23 10:51:19;;;;;;;0.10;0.10;;;;;;;5.54;56.72;98790.09;4463904;32;33557;-82
2023/12/23 10:53:50;;;;;;;0.00;0.00;;;;;;;5.65;56.04;98782.69;4437838;32;32446;-82
2023/12/23 10:56:18;;;;;;;0.75;0.45;;;;;;;5.52;55.77;98782.31;4462650;32;33085;-82
2023/12/23 10:58:45;;;;;;;0.00;0.00;;;;;;;5.55;55.03;98771.72;4461240;32;33433;-82
2023/12/23 11:01:15;;;;;;;0.30;0.30;;;;;;;5.28;54.50;98775.44;4446295;32;33977;-83
2023/12/23 11:03:43;;;;;;;0.00;0.00;;;;;;;5.09;55.27;98772.66;4447349;32;32258;-80
2023/12/23 11:06:13;;;;;;;0.00;0.00;;;;;;;5.13;54.20;98769.03;4453639;32;33890;-80
2023/12/23 11:08:41;;;;;;;0.00;0.00;;;;;;;4.90;55.15;98761.19;4447480;32;33188;-80
2023/12/23 11:11:09;;;;;;;0.00;0.00;;;;;;;5.10;54.06;98742.97;4460163;32;31543;-80
2023/12/23 11:13:37;;;;;;;3.60;1.45;;;;;;;5.49;53.88;98747.56;4448930;32;33345;-80
2023/12/23 11:16:10;;;;;;;0.37;0.37;;;;;;;4.81;55.86;98747.53;4464329;32;34263;-80
2023/12/23 11:18:41;;;;;;;;;;;;;;;4.80;56.48;98747.59;4452363;32;32796;-80
2023/12/23 11:21:17;;;;;;;0.00;0.00;;;;;;;4.94;56.40;98752.28;4465443;32;35541;-80
2023/12/23 11:23:47;;;;;;;0.00;0.00;;;;;;;5.06;56.54;98741.38;4446265;32;33795;-79
2023/12/23 11:26:40;;;;;;;0.00;0.00;;;;;;;4.05;60.75;98750.25;4445579;32;33511;-79
2023/12/23 11:29:12;;;;;;;0.00;0.00;;;;;;;4.20;60.55;98754.09;4446808;32;32958;-80
2023/12/23 11:31:41;;;;;;;0.00;0.00;;;;;;;4.42;61.22;98733.31;4450253;32;32957;-80
2023/12/23 11:34:14;;;;;;;0.00;0.00;;;;;;;4.26;61.96;98728.59;4462306;32;32716;-80
2023/12/23 11:36:43;;;;;;;0.00;0.00;;;;;;;4.40;62.44;98719.44;4447491;32;33510;-79
2023/12/23 11:39:12;;;;;;;0.00;0.00;;;;;;;4.62;62.12;98713.37;4436846;32;33028;-79
2023/12/23 11:41:41;;;;;;;0.00;0.00;;;;;;;4.90;61.68;98708.88;4445950;32;33755;-80
2023/12/23 11:44:11;;;;;;;0.00;0.00;;;;;;;4.23;64.25;98704.38;4422225;32;33950;-80
2023/12/23 11:46:40;;;;;;;0.00;0.00;;;;;;;4.19;64.78;98698.37;4460851;32;33299;-80
2023/12/23 11:49:09;;;;;;;0.00;0.00;;;;;;;4.46;64.21;98687.84;4466576;32;33327;-80
2023/12/23 11:51:39;;;;;;;0.00;0.00;;;;;;;4.27;65.13;98685.03;4449963;32;31931;-80